Time;durP1;ratioP1;P1;durP2;ratioP2;P2;SDS_P1;SDS_P2;PMS_P1;PMS_P2;Temp;Humidity;BMP_temperature;BMP_pressure;BME280_temperature;BME280_humidity;BME280_pressure;Samples;Min_cycle;Max_cycle;Signal;HPM_P1;HPM_P2
2023/07/06 00:01:26;;;;;;;;;;;17.90;59.40;;;13.68;100.00;95706.34;4949453;28;19914;-44
2023/07/06 00:03:57;;;;;;;;;;;17.80;59.20;;;13.67;100.00;95702.09;4949413;28;20287;-46
2023/07/06 00:06:23;;;;;;;;;;;17.80;59.20;;;13.63;100.00;95699.19;4953920;28;19957;-44
2023/07/06 00:08:52;;;;;;;;;;;17.80;59.30;;;13.58;100.00;95691.19;4953299;28;19925;-46
2023/07/06 00:11:20;;;;;;;;;;;17.70;59.20;;;13.53;100.00;95699.22;4941564;28;19910;-44
2023/07/06 00:13:46;;;;;;;;;;;17.70;59.30;;;13.47;100.00;95691.53;4955209;28;19910;-47
2023/07/06 00:16:13;;;;;;;;;;;17.70;59.40;;;13.40;100.00;95686.50;4950510;28;19917;-45
2023/07/06 00:18:39;;;;;;;;;;;17.60;59.40;;;13.31;100.00;95696.19;4944604;28;19964;-44
2023/07/06 00:21:05;;;;;;;;;;;17.50;59.40;;;13.15;100.00;95684.78;4944117;28;19910;-44
2023/07/06 00:23:31;;;;;;;;;;;17.40;59.40;;;13.01;100.00;95684.63;4954466;28;19921;-45
2023/07/06 00:25:57;;;;;;;;;;;17.40;59.50;;;13.02;100.00;95680.84;4956774;28;19940;-45
2023/07/06 00:28:28;;;;;;;;;;;17.30;59.60;;;13.08;100.00;95681.63;4950014;28;19910;-48
2023/07/06 00:31:02;;;;;;;;;;;17.30;59.60;;;13.05;100.00;95687.53;4956582;28;19910;-46
2023/07/06 00:33:30;;;;;;;;;;;17.20;59.60;;;13.02;100.00;95680.84;4958108;28;20399;-45
2023/07/06 00:35:56;;;;;;;;;;;17.20;59.70;;;13.06;100.00;95681.09;4953107;28;20297;-44
2023/07/06 00:38:23;;;;;;;;;;;17.20;59.80;;;13.06;100.00;95692.59;4952592;28;19914;-46
2023/07/06 00:40:56;;;;;;;;;;;17.10;59.80;;;13.00;100.00;95693.69;4959765;28;19910;-47
2023/07/06 00:43:29;;;;;;;;;;;17.10;59.70;;;12.92;100.00;95696.97;4940361;28;19910;-43
2023/07/06 00:46:08;;;;;;;;;;;17.10;59.80;;;12.84;100.00;95687.63;4951284;28;20013;-44
2023/07/06 00:48:44;;;;;;;;;;;17.00;59.80;;;12.81;100.00;95695.41;4955964;28;19917;-44
2023/07/06 00:51:35;;;;;;;;;;;17.00;59.80;;;12.78;100.00;95695.97;4955488;28;19918;-44
2023/07/06 00:54:14;;;;;;;;;;;17.00;59.90;;;12.76;100.00;95696.25;4949292;28;20059;-45
2023/07/06 00:56:46;;;;;;;;;;;17.00;60.00;;;12.75;100.00;95694.63;4946021;28;20249;-44
2023/07/06 00:59:19;;;;;;;;;;;17.00;60.00;;;12.75;100.00;95689.28;4948093;28;20034;-46
2023/07/06 01:01:47;;;;;;;;;;;17.00;60.00;;;12.78;100.00;95696.75;4973534;28;19910;-44
2023/07/06 01:04:17;;;;;;;;;;;17.00;60.00;;;12.77;100.00;95697.03;4959068;28;19910;-44
2023/07/06 01:06:50;;;;;;;;;;;17.00;60.00;;;12.74;100.00;95691.16;4947215;28;19945;-44
2023/07/06 01:09:20;;;;;;;;;;;17.00;60.00;;;12.71;100.00;95689.03;4952877;28;19918;-44
2023/07/06 01:11:47;;;;;;;;;;;17.00;60.10;;;12.69;100.00;95685.88;4959884;28;19994;-44
2023/07/06 01:14:14;;;;;;;;;;;16.90;60.10;;;12.69;100.00;95688.53;4959265;28;19910;-49
2023/07/06 01:16:53;;;;;;;;;;;16.90;60.10;;;12.67;100.00;95685.31;4948967;28;20000;-44
2023/07/06 01:19:56;;;;;;;;;;;16.90;60.20;;;12.66;100.00;95685.59;4959725;28;19921;-45
2023/07/06 01:23:10;;;;;;;;;;;16.90;60.30;;;12.63;100.00;95694.97;4945980;28;19921;-45
2023/07/06 01:26:15;;;;;;;;;;;16.90;60.40;;;12.62;100.00;95685.34;4934831;28;19998;-48
2023/07/06 01:29:01;;;;;;;;;;;16.80;60.40;;;12.56;100.00;95682.97;4954444;28;20316;-46
2023/07/06 01:31:54;;;;;;;;;;;16.80;60.40;;;12.59;100.00;95685.88;4959974;28;19916;-45
2023/07/06 01:34:42;;;;;;;;;;;16.80;60.50;;;12.54;100.00;95685.94;4959132;28;20396;-46
2023/07/06 01:37:22;;;;;;;;;;;16.70;60.50;;;12.53;100.00;95680.84;4957491;28;19925;-47
2023/07/06 01:39:48;;;;;;;;;;;16.70;60.60;;;12.49;100.00;95686.75;4944374;28;20330;-47
2023/07/06 01:42:34;;;;;;;;;;;16.70;60.60;;;12.47;100.00;95690.75;4943413;28;19945;-45
2023/07/06 01:45:18;;;;;;;;;;;16.70;60.60;;;12.43;100.00;95677.13;4948968;28;19914;-46
2023/07/06 01:48:07;;;;;;;;;;;16.70;60.70;;;12.37;100.00;95675.56;4946108;28;20009;-45
2023/07/06 01:51:14;;;;;;;;;;;16.60;60.60;;;12.40;100.00;95675.00;4966949;28;20001;-48
2023/07/06 01:53:49;;;;;;;;;;;16.60;60.60;;;12.36;100.00;95673.19;4942686;28;19917;-47
2023/07/06 01:56:33;;;;;;;;;;;16.60;60.60;;;12.29;100.00;95668.13;4955080;28;20332;-47
2023/07/06 01:59:09;;;;;;;;;;;16.50;60.60;;;12.20;100.00;95677.78;4970672;28;19968;-45
2023/07/06 02:01:44;;;;;;;;;;;16.40;60.50;;;12.12;100.00;95671.09;4939162;28;19918;-50
2023/07/06 02:04:11;;;;;;;;;;;16.40;60.60;;;12.07;100.00;95675.69;4943412;28;19953;-47
2023/07/06 02:06:38;;;;;;;;;;;16.40;60.70;;;11.95;100.00;95686.66;4941337;28;20004;-46
2023/07/06 02:09:04;;;;;;;;;;;16.30;60.70;;;11.91;100.00;95685.56;4950391;28;19973;-47
2023/07/06 02:11:32;;;;;;;;;;;16.20;60.70;;;11.89;100.00;95687.72;4943034;28;20265;-45
2023/07/06 02:13:57;;;;;;;;;;;16.20;60.90;;;11.90;100.00;95682.09;4954753;28;19910;-48
2023/07/06 02:16:23;;;;;;;;;;;16.20;60.90;;;11.86;100.00;95682.94;4937782;28;19937;-47
2023/07/06 02:18:49;;;;;;;;;;;16.10;60.90;;;11.75;100.00;95688.25;4947924;28;20332;-46
2023/07/06 02:21:15;;;;;;;;;;;16.20;61.00;;;11.77;100.00;95688.78;4950155;28;19911;-45
2023/07/06 02:23:41;;;;;;;;;;;16.10;61.10;;;11.82;100.00;95688.78;4947952;28;20387;-45
2023/07/06 02:26:07;;;;;;;;;;;16.10;61.90;;;11.84;100.00;95680.47;4955694;28;19914;-48
2023/07/06 02:28:35;;;;;;;;;;;16.10;61.20;;;11.89;100.00;95677.84;4942821;28;19915;-46
2023/07/06 02:31:03;;;;;;;;;;;16.10;61.20;;;11.87;100.00;95679.97;4954276;28;20012;-47
2023/07/06 02:33:30;;;;;;;;;;;16.10;61.20;;;11.88;100.00;95686.13;4954579;28;19910;-45
2023/07/06 02:35:56;;;;;;;;;;;16.20;62.10;;;11.88;100.00;95681.59;4955598;28;19910;-48
2023/07/06 02:38:22;;;;;;;;;;;16.20;61.20;;;11.89;100.00;95683.19;4941717;28;20370;-47
2023/07/06 02:40:49;;;;;;;;;;;16.20;61.20;;;11.91;100.00;95680.22;4954745;28;19910;-49
2023/07/06 02:43:16;;;;;;;;;;;16.20;61.30;;;11.88;100.00;95675.47;4936583;29;19917;-48
2023/07/06 02:45:47;;;;;;;;;;;16.20;61.30;;;11.90;100.00;95673.31;4952281;28;20013;-46
2023/07/06 02:48:14;;;;;;;;;;;16.20;61.20;;;11.87;100.00;95673.84;4941938;28;19918;-48
2023/07/06 02:50:40;;;;;;;;;;;16.20;61.20;;;11.90;100.00;95670.63;4949783;28;20677;-46
2023/07/06 02:53:06;;;;;;;;;;;16.20;61.20;;;11.88;100.00;95675.47;4942512;28;19911;-45
2023/07/06 02:55:32;;;;;;;;;;;16.20;61.20;;;11.89;100.00;95667.16;4947928;28;20005;-49
2023/07/06 02:57:58;;;;;;;;;;;16.20;61.30;;;11.87;100.00;95668.50;4936333;28;19977;-48
2023/07/06 03:00:25;;;;;;;;;;;16.20;61.30;;;11.86;100.00;95664.25;4947856;28;19950;-47
2023/07/06 03:02:51;;;;;;;;;;;16.20;61.40;;;11.85;100.00;95658.13;4948547;28;19921;-46
2023/07/06 03:05:22;;;;;;;;;;;16.10;61.30;;;11.84;100.00;95659.13;4950670;28;19914;-46
2023/07/06 03:07:54;;;;;;;;;;;16.10;61.30;;;11.78;100.00;95660.22;4962666;28;19918;-46
2023/07/06 03:10:22;;;;;;;;;;;16.10;61.30;;;11.70;100.00;95660.78;4951210;28;20421;-47
2023/07/06 03:12:48;;;;;;;;;;;16.00;61.30;;;11.71;100.00;95657.81;4941919;28;19910;-45
2023/07/06 03:15:15;;;;;;;;;;;16.10;61.50;;;11.69;100.00;95654.66;4952492;28;19917;-45
2023/07/06 03:17:48;;;;;;;;;;;16.10;61.50;;;11.71;100.00;95657.81;4951010;28;20293;-45
2023/07/06 03:20:19;;;;;;;;;;;16.00;61.50;;;11.71;100.00;95659.69;4946617;28;19969;-47
2023/07/06 03:22:48;;;;;;;;;;;16.10;61.60;;;11.75;100.00;95661.56;4949934;28;19910;-47
2023/07/06 03:25:16;;;;;;;;;;;16.00;61.60;;;11.74;100.00;95659.94;4935659;28;20014;-46
2023/07/06 03:27:43;;;;;;;;;;;16.00;61.60;;;11.71;100.00;95665.03;4953054;28;20377;-47
2023/07/06 03:30:11;;;;;;;;;;;16.00;61.60;;;11.64;100.00;95665.31;4942021;28;19964;-47
2023/07/06 03:32:38;;;;;;;;;;;16.00;61.60;;;11.66;100.00;95670.38;4948865;28;20436;-45
2023/07/06 03:35:10;;;;;;;;;;;16.00;61.60;;;11.67;100.00;95663.97;4948118;28;19974;-47
2023/07/06 03:37:37;;;;;;;;;;;16.00;61.70;;;11.65;100.00;95668.78;4942155;28;19910;-49
2023/07/06 03:40:10;;;;;;;;;;;16.00;61.80;;;11.66;100.00;95657.84;4952707;28;19921;-48
2023/07/06 03:42:39;;;;;;;;;;;16.00;61.70;;;11.66;100.00;95659.69;4964374;28;20065;-48
2023/07/06 03:45:06;;;;;;;;;;;16.00;61.80;;;11.70;100.00;95650.09;4944902;28;19917;-48
2023/07/06 03:47:37;;;;;;;;;;;16.10;61.80;;;11.73;100.00;95650.34;4953135;28;19910;-46
2023/07/06 03:50:08;;;;;;;;;;;16.10;61.90;;;11.77;100.00;95656.75;4941380;28;20064;-48
2023/07/06 03:52:37;;;;;;;;;;;16.10;61.80;;;11.80;100.00;95652.75;4953664;28;20004;-48
2023/07/06 03:55:15;;;;;;;;;;;16.10;61.80;;;11.81;100.00;95644.47;4941244;28;19910;-47
2023/07/06 03:57:43;;;;;;;;;;;16.20;61.90;;;11.90;100.00;95643.94;4953157;28;19914;-48
2023/07/06 04:00:22;;;;;;;;;;;16.30;62.00;;;11.93;100.00;95624.72;4940639;28;20005;-45
2023/07/06 04:02:51;;;;;;;;;;;16.30;61.90;;;12.03;100.00;95635.34;4952890;28;19953;-47
2023/07/06 04:05:25;;;;;;;;;;;16.40;62.00;;;12.07;100.00;95630.28;4942221;28;19974;-48
2023/07/06 04:07:54;;;;;;;;;;;16.40;62.70;;;12.18;100.00;95635.31;4953916;28;19918;-46
2023/07/06 04:10:21;;;;;;;;;;;16.50;61.90;;;12.22;100.00;95638.22;4952474;28;20282;-46
2023/07/06 04:12:50;;;;;;;;;;;16.50;61.90;;;12.27;100.00;95643.56;4937490;28;19911;-45
2023/07/06 04:15:17;;;;;;;;;;;16.50;61.90;;;12.30;100.00;95643.00;4943133;28;19980;-48
2023/07/06 04:17:48;;;;;;;;;;;16.60;61.80;;;12.33;100.00;95641.66;4941238;28;19956;-46
2023/07/06 04:20:21;;;;;;;;;;;16.70;61.80;;;12.35;100.00;95650.22;4953422;28;19922;-45
2023/07/06 04:22:57;;;;;;;;;;;16.70;61.70;;;12.46;100.00;95647.22;4941710;28;20366;-46
2023/07/06 04:25:31;;;;;;;;;;;16.80;61.70;;;12.66;100.00;95650.84;4952831;28;20427;-45
2023/07/06 04:28:06;;;;;;;;;;;17.00;61.80;;;12.76;100.00;95650.00;4951385;28;20285;-47
2023/07/06 04:30:41;;;;;;;;;;;17.10;61.60;;;12.81;100.00;95658.00;4953850;28;19910;-47
2023/07/06 04:33:14;;;;;;;;;;;17.20;62.30;;;12.85;100.00;95659.84;4951604;29;19914;-45
2023/07/06 04:35:41;;;;;;;;;;;17.30;61.40;;;12.91;100.00;95660.59;4953686;28;19914;-46
2023/07/06 04:38:08;;;;;;;;;;;17.30;61.30;;;13.02;100.00;95662.13;4954027;28;20249;-49
2023/07/06 04:40:34;;;;;;;;;;;17.50;61.20;;;13.10;100.00;95658.88;4934829;28;20330;-45
2023/07/06 04:43:00;;;;;;;;;;;17.60;61.10;;;13.16;100.00;95654.28;4951915;29;19910;-50
2023/07/06 04:45:27;;;;;;;;;;;17.70;61.00;;;13.28;100.00;95651.28;4940983;28;20384;-46
2023/07/06 04:47:54;;;;;;;;;;;17.80;61.00;;;13.38;100.00;95648.50;4944797;29;19980;-48
2023/07/06 04:50:22;;;;;;;;;;;17.90;60.90;;;13.54;100.00;95646.53;4950632;28;20460;-47
2023/07/06 04:52:53;;;;;;;;;;;18.00;60.90;;;13.68;100.00;95647.47;4942177;28;20365;-51
2023/07/06 04:55:22;;;;;;;;;;;18.10;61.50;;;13.80;100.00;95652.44;4952153;29;20031;-48
2023/07/06 04:57:55;;;;;;;;;;;18.20;60.70;;;13.91;100.00;95647.78;4952615;28;19917;-48
2023/07/06 05:00:25;;;;;;;;;;;18.30;60.70;;;13.96;100.00;95650.41;4953800;28;19918;-46
2023/07/06 05:02:53;;;;;;;;;;;18.40;60.50;;;13.97;99.34;95654.66;4951620;28;19914;-50
2023/07/06 05:05:20;;;;;;;;;;;18.50;60.40;;;14.08;100.00;95651.59;4941924;29;19910;-48
2023/07/06 05:07:46;;;;;;;;;;;18.60;60.30;;;14.15;99.28;95648.59;4953317;28;19918;-48
2023/07/06 05:10:14;;;;;;;;;;;18.70;60.20;;;14.32;98.61;95650.78;4944758;28;19911;-51
2023/07/06 05:12:41;;;;;;;;;;;18.80;60.00;;;14.40;95.66;95650.16;4950806;28;20001;-49
2023/07/06 05:15:07;;;;;;;;;;;19.00;60.00;;;14.62;95.81;95646.19;4954963;28;19957;-48
2023/07/06 05:17:33;;;;;;;;;;;19.20;60.00;;;14.86;96.42;95654.19;4946734;28;19921;-48
2023/07/06 05:19:59;;;;;;;;;;;19.30;59.80;;;15.09;94.62;95661.34;4954829;28;19914;-47
2023/07/06 05:22:26;;;;;;;;;;;19.60;59.80;;;15.36;93.03;95657.19;4947557;28;20358;-47
2023/07/06 05:24:52;;;;;;;;;;;19.80;59.60;;;15.57;92.66;95660.31;4957097;28;19910;-45
2023/07/06 05:27:19;;;;;;;;;;;20.00;59.50;;;15.71;91.59;95658.50;4954120;28;19910;-46
2023/07/06 05:29:45;;;;;;;;;;;20.20;59.40;;;15.80;90.65;95664.00;4945757;28;20300;-48
2023/07/06 05:32:11;;;;;;;;;;;20.30;59.20;;;15.86;88.45;95660.16;4956868;28;19914;-49
2023/07/06 05:34:37;;;;;;;;;;;20.50;59.10;;;15.93;87.83;95663.22;4956107;28;20361;-45
2023/07/06 05:37:03;;;;;;;;;;;20.60;58.90;;;15.98;86.07;95656.97;4943784;28;19933;-46
2023/07/06 05:39:29;;;;;;;;;;;20.80;58.70;;;15.98;86.14;95662.31;4955830;28;19914;-46
2023/07/06 05:41:55;;;;;;;;;;;20.90;58.50;;;16.05;87.09;95658.19;4946862;28;20021;-48
2023/07/06 05:44:20;;;;;;;;;;;21.00;58.30;;;16.17;87.66;95671.13;4942769;28;20355;-50
2023/07/06 05:46:46;;;;;;;;;;;21.10;58.20;;;16.18;87.62;95668.13;4954402;28;20399;-50
2023/07/06 05:49:12;;;;;;;;;;;21.20;58.00;;;16.18;87.68;95668.13;4946134;28;19910;-46
2023/07/06 05:51:38;;;;;;;;;;;21.30;57.90;;;16.27;87.84;95676.31;4955560;28;19910;-47
2023/07/06 05:54:03;;;;;;;;;;;21.30;57.70;;;16.38;87.88;95671.50;4956661;28;20012;-49
2023/07/06 05:56:31;;;;;;;;;;;21.40;57.60;;;16.49;86.24;95667.53;4955287;28;19910;-48
2023/07/06 05:58:59;;;;;;;;;;;21.50;57.50;;;16.63;86.27;95667.53;4955218;28;19922;-49
2023/07/06 06:01:26;;;;;;;;;;;21.70;57.30;;;16.83;86.95;95675.22;4950262;28;20000;-48
2023/07/06 06:03:52;;;;;;;;;;;21.90;57.20;;;17.06;84.85;95677.94;4952799;28;19932;-50
2023/07/06 06:06:22;;;;;;;;;;;22.10;57.10;;;17.23;82.53;95675.38;4952999;28;20354;-49
2023/07/06 06:08:49;;;;;;;;;;;22.30;57.00;;;17.43;83.06;95681.41;4945633;28;19973;-50
2023/07/06 06:11:15;;;;;;;;;;;22.50;56.80;;;17.60;82.05;95678.03;4939197;28;19911;-48
2023/07/06 06:13:43;;;;;;;;;;;22.70;56.60;;;17.71;78.65;95676.69;4938724;28;19921;-50
2023/07/06 06:16:11;;;;;;;;;;;22.80;56.50;;;17.82;81.06;95679.97;4947133;28;19910;-49
2023/07/06 06:18:41;;;;;;;;;;;23.00;56.30;;;17.91;79.26;95680.81;4954211;28;20016;-50
2023/07/06 06:21:07;;;;;;;;;;;23.10;56.10;;;18.00;80.06;95674.34;4950611;28;19911;-49
2023/07/06 06:23:33;;;;;;;;;;;23.20;56.00;;;18.05;78.98;95662.66;4944698;28;20341;-47
2023/07/06 06:26:00;;;;;;;;;;;23.30;55.80;;;18.11;77.83;95674.06;4955186;28;19957;-47
2023/07/06 06:28:26;;;;;;;;;;;23.30;55.60;;;18.14;76.82;95671.56;4954701;28;19945;-49
2023/07/06 06:30:55;;;;;;;;;;;23.40;55.50;;;18.23;78.59;95675.09;4955851;28;19914;-47
2023/07/06 06:33:21;;;;;;;;;;;23.40;55.40;;;18.04;78.04;95674.53;4946291;28;20433;-50
2023/07/06 06:35:47;;;;;;;;;;;23.50;55.30;;;17.91;78.73;95675.41;4954651;28;20024;-49
2023/07/06 06:38:14;;;;;;;;;;;23.60;55.00;;;17.95;77.15;95673.69;4955671;28;20012;-49
2023/07/06 06:40:40;;;;;;;;;;;23.70;55.00;;;18.07;77.36;95675.81;4955065;28;19956;-49
2023/07/06 06:43:06;;;;;;;;;;;23.70;54.80;;;18.39;78.10;95674.66;4944029;28;19911;-47
2023/07/06 06:45:32;;;;;;;;;;;23.90;54.70;;;18.63;76.66;95671.59;4948641;28;19921;-47
2023/07/06 06:47:59;;;;;;;;;;;24.10;54.60;;;18.94;76.09;95669.63;4955458;28;19917;-53
2023/07/06 06:50:27;;;;;;;;;;;24.40;54.50;;;19.19;73.68;95672.66;4954606;28;19910;-48
2023/07/06 06:52:53;;;;;;;;;;;24.70;54.40;;;19.48;71.77;95680.13;4943461;28;19910;-51
2023/07/06 06:55:19;;;;;;;;;;;24.90;54.10;;;19.73;70.52;95673.13;4953242;28;20305;-48
2023/07/06 06:57:45;;;;;;;;;;;25.20;53.80;;;19.99;69.70;95673.06;4954093;28;20395;-52
2023/07/06 07:00:17;;;;;;;;;;;25.50;53.50;;;20.22;69.51;95676.34;4942506;28;19918;-52
2023/07/06 07:02:43;;;;;;;;;;;25.70;53.30;;;20.44;66.90;95674.53;4953955;28;19952;-48
2023/07/06 07:05:12;;;;;;;;;;;26.10;53.10;;;20.61;65.96;95670.97;4942872;28;19917;-44
2023/07/06 07:07:38;;;;;;;;;;;26.30;52.70;;;20.79;66.96;95672.47;4955201;28;19984;-49
2023/07/06 07:10:09;;;;;;;;;;;26.70;52.50;;;21.13;63.88;95676.06;4947516;28;19911;-50
2023/07/06 07:12:40;;;;;;;;;;;26.90;52.30;;;21.18;60.98;95675.84;4950281;28;19914;-48
2023/07/06 07:15:09;;;;;;;;;;;27.00;52.00;;;21.08;61.66;95676.25;4951606;28;20350;-47
2023/07/06 07:17:38;;;;;;;;;;;26.90;51.80;;;21.11;61.96;95670.19;4951806;28;19943;-49
2023/07/06 07:20:06;;;;;;;;;;;26.80;51.50;;;21.12;60.86;95667.16;4954931;28;19914;-47
2023/07/06 07:22:32;;;;;;;;;;;26.80;51.40;;;21.36;61.80;95677.34;4940689;28;20344;-51
2023/07/06 07:24:58;;;;;;;;;;;27.00;51.20;;;21.56;61.56;95680.38;4976713;23;19937;-44
2023/07/06 07:27:26;;;;;;;;;;;27.30;51.00;;;21.79;61.84;95681.59;4961673;28;19921;-49
2023/07/06 07:29:54;;;;;;;;;;;27.60;50.80;;;22.14;57.14;95686.66;4959204;28;19910;-46
2023/07/06 07:32:20;;;;;;;;;;;27.90;50.40;;;22.30;56.61;95684.91;4969735;28;20001;-45
2023/07/06 07:34:50;;;;;;;;;;;28.20;50.00;;;22.57;58.76;95688.13;4973173;28;19910;-49
2023/07/06 07:37:19;;;;;;;;;;;28.60;49.90;;;22.59;55.15;95680.41;4973144;28;20395;-46
2023/07/06 07:39:45;;;;;;;;;;;28.90;49.50;;;22.87;56.90;95684.00;4965191;28;19925;-47
2023/07/06 07:42:12;;;;;;;;;;;29.10;49.50;;;23.31;54.94;95677.97;4970311;28;19957;-52
2023/07/06 07:44:40;;;;;;;;;;;29.30;48.70;;;23.66;54.48;95680.13;4966140;28;20005;-49
2023/07/06 07:47:06;;;;;;;;;;;29.60;48.70;;;23.95;52.19;95687.19;4957665;28;20261;-47
2023/07/06 07:49:32;;;;;;;;;;;29.90;48.50;;;24.22;51.32;95674.66;4972772;28;19917;-48
2023/07/06 07:51:57;;;;;;;;;;;30.30;48.20;;;24.55;50.65;95682.53;4970052;28;20045;-46
2023/07/06 07:54:23;;;;;;;;;;;30.60;47.90;;;24.81;48.83;95684.69;4972356;28;19914;-46
2023/07/06 07:56:53;;;;;;;;;;;31.00;47.40;;;24.97;47.74;95684.66;4967968;28;20069;-46
2023/07/06 07:59:22;;;;;;;;;;;31.30;46.90;;;25.04;48.11;95684.84;4962441;28;19921;-46
2023/07/06 08:01:47;;;;;;;;;;;31.60;46.40;;;24.96;46.55;95685.03;4972760;28;19913;-47
2023/07/06 08:04:14;;;;;;;;;;;31.80;45.90;;;25.02;45.63;95694.53;4961590;28;19963;-45
2023/07/06 08:06:40;;;;;;;;;;;31.90;45.50;;;25.19;43.97;95682.47;4972612;28;19910;-46
2023/07/06 08:09:07;;;;;;;;;;;32.00;45.00;;;25.42;43.91;95691.53;4965507;28;19956;-49
2023/07/06 08:11:38;;;;;;;;;;;32.00;44.70;;;25.73;43.06;95679.72;4980440;28;20329;-45
2023/07/06 08:14:10;;;;;;;;;;;32.20;44.40;;;25.81;43.84;95688.84;4972471;28;20431;-49
2023/07/06 08:16:36;;;;;;;;;;;32.30;44.10;;;25.95;43.75;95689.13;4946601;28;19910;-46
2023/07/06 08:19:05;;;;;;;;;;;32.40;43.90;;;26.33;40.53;95692.94;4972617;28;20407;-45
2023/07/06 08:21:31;;;;;;;;;;;32.60;43.70;;;26.34;40.55;95691.78;4963029;28;20289;-45
2023/07/06 08:23:58;;;;;;;;;;;32.80;43.30;;;26.48;39.85;95696.69;4971680;28;19918;-45
2023/07/06 08:26:24;;;;;;;;;;;32.90;42.90;;;26.33;42.32;95695.66;4958354;28;20599;-48
2023/07/06 08:28:51;;;;;;;;;;;33.00;42.50;;;26.62;39.13;95688.00;4943328;28;20042;-48
2023/07/06 08:31:20;;;;;;;;;;;33.10;42.20;;;26.81;38.97;95693.38;4952994;28;19936;-47
2023/07/06 08:33:47;;;;;;;;;;;33.30;42.60;;;26.94;39.44;95700.19;4951289;28;20369;-45
2023/07/06 08:36:15;;;;;;;;;;;33.40;41.60;;;27.25;39.22;95698.34;4952810;28;20336;-47
2023/07/06 08:38:43;;;;;;;;;;;33.60;41.40;;;27.62;36.82;95695.72;4950380;28;19929;-45
2023/07/06 08:41:37;;;;;;;;;;;33.70;41.20;;;27.71;36.64;95694.66;4952647;28;19921;-45
2023/07/06 08:44:08;;;;;;;;;;;34.00;41.00;;;27.38;37.28;95707.09;4951505;28;19917;-51
2023/07/06 08:46:45;;;;;;;;;;;34.10;40.50;;;27.60;35.60;95705.44;4952612;28;20278;-45
2023/07/06 08:49:35;;;;;;;;;;;34.30;40.20;;;27.75;37.39;95704.47;4956953;28;19914;-48
2023/07/06 08:52:05;;;;;;;;;;;34.50;40.00;;;27.79;36.75;95701.78;4958765;28;19996;-49
2023/07/06 08:54:37;;;;;;;;;;;34.80;39.90;;;28.06;39.56;95705.25;4956267;28;19953;-48
2023/07/06 08:57:15;;;;;;;;;;;34.90;39.50;;;28.43;35.48;95702.53;4954516;28;19910;-49
2023/07/06 08:59:48;;;;;;;;;;;35.20;39.30;;;28.68;35.68;95701.97;4953010;28;20229;-47
2023/07/06 09:02:22;;;;;;;;;;;35.40;38.80;;;28.37;35.48;95707.53;4961017;28;20348;-46
2023/07/06 09:04:51;;;;;;;;;;;35.60;38.50;;;28.27;33.87;95697.25;4944141;28;20304;-47
2023/07/06 09:07:34;;;;;;;;;;;35.60;38.10;;;28.27;36.20;95697.25;4956440;28;19910;-45
2023/07/06 09:10:11;;;;;;;;;;;35.60;37.70;;;28.64;35.06;95703.88;4955680;28;20435;-45
2023/07/06 09:12:39;;;;;;;;;;;35.70;37.50;;;28.48;32.98;95696.69;4954828;28;19949;-48
2023/07/06 09:15:09;;;;;;;;;;;35.70;37.00;;;28.64;33.87;95701.91;4960527;28;19916;-48
2023/07/06 09:17:46;;;;;;;;;;;35.60;36.70;;;28.71;32.01;95703.94;4944002;28;19956;-50
2023/07/06 09:20:16;;;;;;;;;;;35.70;36.50;;;28.93;34.98;95702.16;4956027;28;19918;-49
2023/07/06 09:22:43;;;;;;;;;;;35.80;36.30;;;29.03;32.04;95701.47;4945676;28;19910;-48
2023/07/06 09:25:35;;;;;;;;;;;35.80;36.00;;;29.11;32.86;95700.34;4955664;28;20005;-45
2023/07/06 09:28:07;;;;;;;;;;;35.90;35.90;;;28.90;31.28;95700.97;4949840;28;19993;-45
2023/07/06 09:30:38;;;;;;;;;;;36.00;35.60;;;28.81;31.27;95690.31;4952175;28;19996;-45
2023/07/06 09:33:26;;;;;;;;;;;36.20;35.40;;;29.08;31.51;95692.09;4954272;28;19918;-47
2023/07/06 09:35:56;;;;;;;;;;;36.20;35.00;;;29.03;32.11;95690.50;4953208;28;19914;-45
2023/07/06 09:38:24;;;;;;;;;;;36.30;35.00;;;28.99;31.85;95690.47;4960401;28;20354;-47
2023/07/06 09:40:52;;;;;;;;;;;36.40;35.00;;;29.28;31.54;95685.19;4956728;28;19910;-45
2023/07/06 09:43:29;;;;;;;;;;;36.70;34.70;;;29.66;32.79;95686.56;4955820;28;19917;-45
2023/07/06 09:45:59;;;;;;;;;;;36.90;34.60;;;29.81;31.92;95692.13;4938738;28;20368;-45
2023/07/06 09:48:36;;;;;;;;;;;37.10;34.40;;;29.73;31.81;95686.59;4955506;28;19967;-45
2023/07/06 09:51:14;;;;;;;;;;;37.10;34.00;;;29.70;33.47;95684.63;4964820;28;20419;-45
2023/07/06 09:53:48;;;;;;;;;;;37.20;34.00;;;29.74;31.98;95690.94;4956005;28;20452;-45
2023/07/06 09:56:15;;;;;;;;;;;37.20;33.80;;;29.79;31.18;95684.28;4955419;28;19964;-45
2023/07/06 09:58:45;;;;;;;;;;;37.30;33.60;;;29.69;32.54;95687.78;4942750;28;19996;-45
2023/07/06 10:01:48;;;;;;;;;;;37.50;33.40;;;29.52;32.43;95687.28;4955933;28;19957;-48
2023/07/06 10:04:39;;;;;;;;;;;37.50;33.20;;;29.87;31.87;95688.63;4953382;28;19972;-45
2023/07/06 10:07:24;;;;;;;;;;;37.60;33.00;;;29.82;31.69;95680.75;4944739;28;19910;-47
2023/07/06 10:09:59;;;;;;;;;;;37.70;32.80;;;29.78;31.58;95693.69;4950130;28;19910;-45
2023/07/06 10:12:55;;;;;;;;;;;37.80;32.50;;;29.39;35.08;95696.97;4955224;28;19925;-50
2023/07/06 10:15:47;;;;;;;;;;;37.70;32.30;;;29.39;34.81;95691.50;4947067;28;19910;-51
2023/07/06 10:18:49;;;;;;;;;;;37.60;32.20;;;29.44;32.56;95695.84;4944049;28;20381;-44
2023/07/06 10:21:33;;;;;;;;;;;37.50;32.20;;;29.32;31.75;95688.72;4961647;28;19918;-45
2023/07/06 10:24:41;;;;;;;;;;;37.40;32.00;;;29.17;32.55;95692.53;4950539;28;19918;-46
2023/07/06 10:27:18;;;;;;;;;;;37.00;32.00;;;29.07;31.50;95694.06;4949428;28;20000;-43
2023/07/06 10:29:56;;;;;;;;;;;36.80;31.90;;;28.42;33.45;95684.50;4941844;28;19971;-43
2023/07/06 10:32:36;;;;;;;;;;;36.70;31.80;;;28.88;32.90;95686.84;4954572;28;19914;-49
2023/07/06 10:35:18;;;;;;;;;;;36.70;31.60;;;29.36;33.10;95692.25;4954226;28;20388;-46
2023/07/06 10:37:45;;;;;;;;;;;36.90;31.50;;;29.58;32.23;95692.38;4953563;28;20591;-44
2023/07/06 10:40:21;;;;;;;;;;;37.10;31.30;;;29.83;32.97;95689.78;4952526;28;20321;-44
2023/07/06 10:43:07;;;;;;;;;;;37.20;31.40;;;30.04;31.32;95689.84;4954768;28;20288;-45
2023/07/06 10:45:33;;;;;;;;;;;37.30;31.50;;;29.98;33.82;95691.41;4952677;28;19918;-44
2023/07/06 10:48:25;;;;;;;;;;;37.50;31.60;;;29.86;32.23;95689.78;4954099;28;19918;-43
2023/07/06 10:51:23;;;;;;;;;;;37.50;31.40;;;29.12;33.16;95684.69;4955859;28;20380;-45
2023/07/06 10:54:17;;;;;;;;;;;37.40;31.20;;;29.00;31.13;95693.97;4956372;28;20016;-45
2023/07/06 10:57:00;;;;;;;;;;;37.30;31.10;;;29.24;31.90;95682.44;4958249;28;20356;-44
2023/07/06 10:59:37;;;;;;;;;;;37.30;30.90;;;29.36;30.81;95680.50;4956994;28;19949;-45
2023/07/06 11:02:33;;;;;;;;;;;37.40;30.40;;;29.48;31.24;95680.97;4953772;28;26914;-49
2023/07/06 11:05:25;;;;;;;;;;;37.20;30.50;;;28.95;32.74;95664.16;4950358;28;19910;-44
2023/07/06 11:07:57;;;;;;;;;;;37.10;30.20;;;29.54;30.32;95670.41;4954428;28;20064;-45
2023/07/06 11:10:37;;;;;;;;;;;37.20;30.30;;;30.14;31.38;95669.84;4949688;28;19910;-44
2023/07/06 11:13:04;;;;;;;;;;;37.50;30.30;;;30.52;29.76;95658.56;4948743;28;19935;-53
2023/07/06 11:15:29;;;;;;;;;;;37.80;30.20;;;30.65;30.61;95665.25;4939316;28;20338;-44
2023/07/06 11:18:03;;;;;;;;;;;38.20;30.10;;;30.87;28.10;95668.81;4949864;28;19910;-45
2023/07/06 11:20:30;;;;;;;;;;;38.60;30.00;;;30.85;29.01;95671.16;4951439;28;19921;-47
2023/07/06 11:23:04;;;;;;;;;;;38.40;29.90;;;30.91;29.30;95664.09;4951259;28;19973;-43
2023/07/06 11:25:31;;;;;;;;;;;38.60;29.80;;;30.24;29.99;95665.59;4952785;28;20369;-47
2023/07/06 11:28:07;;;;;;;;;;;38.80;29.50;;;30.33;30.99;95655.00;4938238;28;19915;-44
2023/07/06 11:31:05;;;;;;;;;;;38.90;29.20;;;30.47;29.24;95662.50;4946871;28;19945;-46
2023/07/06 11:33:48;;;;;;;;;;;38.90;28.90;;;30.82;30.20;95650.72;4952191;28;19913;-45
2023/07/06 11:36:43;;;;;;;;;;;39.10;28.70;;;31.10;29.04;95660.13;4954703;28;19941;-45